Parkville, MD

4:42 AM EDT on August 25, 2016 (GMT -0400)
Parkville/Harris | | Change Station

Elev 351 ft 39.37 °N, 76.54 °W | Updated 64 days ago

Partly Cloudy
Partly Cloudy
72 °F
Feels Like 72 °F
N
4
Wind Variable Wind from SSW
Gusts mph

Today
High -- | Low -- °F
--% Chance of Precip.
Yesterday
High -- | Low -- °F
Precip. -- in
Pressure 30.13 in
Visibility 10.0 miles
Clouds Few 25000 ft
Dew Point 65 °F
Humidity 78%
Rainfall in
Snow Depth Not available.
6:28 AM 7:46 PM
Waning Gibbous, 48% visible
METAR KBWI 250754Z 00000KT 10SM FEW250 19/17 A3014 RMK AO2 SLP203 T01890167
Pressure 30.13 in
Visibility 10.0 miles
Clouds Few 25000 ft
Dew Point 65 °F
Humidity 78%
Rainfall in
Snow Depth Not available.
6:28 AM 7:46 PM
Waning Gibbous, 48% visible
METAR KBWI 250754Z 00000KT 10SM FEW250 19/17 A3014 RMK AO2 SLP203 T01890167

10-Day Weather Forecast

Almanac

Astronomy

Aug. 25, 2016 Rise Set
Actual Time
Civil Twilight
Nautical Twilight
Astronomical Twilight
Moon
Length of Visible Light
Length of Day
Tomorrow will be .
, % of the Moon is Illuminated

Today's Extremes

State Highs State Lows

Community

WunderPhotos

Upload Photos

1,934,814 photos uploaded!

WunderBlog® & News

Nearby

Air Quality

  Air Quality AQ Index Pollutant
Not available.

Snow Depth

Station Depth Elevation

Earthquake Activity

City Distance Mag. Time & Date
Minimum magnitude displayed is 2.5.

Coastal Water Temperatures

Place Temperature

Stations

Nearby Weather Stations

Station Location Temp. Windchill Dew Point Humidity Wind Precip. Elev Updated Type
                   

Watches & Warnings

There are currently no watches in effect.